sensor_id;sensor_type;location;lat;lon;timestamp;P1;durP1;ratioP1;P2;durP2;ratioP2
10659;SDS011;5378;53.206;13.316;2023-05-07T00:00:11;22.13;;;8.23;;
10659;SDS011;5378;53.206;13.316;2023-05-07T00:03:00;15.00;;;7.63;;
10659;SDS011;5378;53.206;13.316;2023-05-07T00:05:48;11.60;;;6.80;;
10659;SDS011;5378;53.206;13.316;2023-05-07T00:08:35;15.40;;;8.80;;
10659;SDS011;5378;53.206;13.316;2023-05-07T00:11:22;16.40;;;8.43;;
10659;SDS011;5378;53.206;13.316;2023-05-07T00:14:10;10.50;;;7.30;;
10659;SDS011;5378;53.206;13.316;2023-05-07T00:16:57;14.17;;;6.97;;
10659;SDS011;5378;53.206;13.316;2023-05-07T00:19:44;14.73;;;7.50;;
10659;SDS011;5378;53.206;13.316;2023-05-07T00:22:32;17.80;;;7.60;;
10659;SDS011;5378;53.206;13.316;2023-05-07T00:25:19;17.13;;;8.30;;
10659;SDS011;5378;53.206;13.316;2023-05-07T00:28:06;12.03;;;7.40;;
10659;SDS011;5378;53.206;13.316;2023-05-07T00:30:55;21.33;;;7.13;;
10659;SDS011;5378;53.206;13.316;2023-05-07T00:33:42;15.50;;;7.80;;
10659;SDS011;5378;53.206;13.316;2023-05-07T00:36:29;14.00;;;7.00;;
10659;SDS011;5378;53.206;13.316;2023-05-07T00:39:16;13.40;;;7.27;;
10659;SDS011;5378;53.206;13.316;2023-05-07T00:42:04;11.80;;;7.80;;
10659;SDS011;5378;53.206;13.316;2023-05-07T00:44:51;13.77;;;7.67;;
10659;SDS011;5378;53.206;13.316;2023-05-07T00:47:39;12.13;;;6.97;;
10659;SDS011;5378;53.206;13.316;2023-05-07T00:50:27;12.23;;;6.47;;
10659;SDS011;5378;53.206;13.316;2023-05-07T00:53:15;12.40;;;6.93;;
10659;SDS011;5378;53.206;13.316;2023-05-07T00:56:03;18.23;;;8.43;;
10659;SDS011;5378;53.206;13.316;2023-05-07T00:58:51;10.87;;;7.03;;
10659;SDS011;5378;53.206;13.316;2023-05-07T01:01:39;14.47;;;7.27;;
10659;SDS011;5378;53.206;13.316;2023-05-07T01:04:27;12.23;;;7.30;;
10659;SDS011;5378;53.206;13.316;2023-05-07T01:07:14;10.43;;;6.37;;
10659;SDS011;5378;53.206;13.316;2023-05-07T01:10:02;14.43;;;8.13;;
10659;SDS011;5378;53.206;13.316;2023-05-07T01:12:50;13.27;;;7.30;;
10659;SDS011;5378;53.206;13.316;2023-05-07T01:15:38;18.23;;;6.40;;
10659;SDS011;5378;53.206;13.316;2023-05-07T01:18:27;10.73;;;6.80;;
10659;SDS011;5378;53.206;13.316;2023-05-07T01:21:16;13.73;;;6.67;;
10659;SDS011;5378;53.206;13.316;2023-05-07T01:24:06;12.90;;;7.53;;
10659;SDS011;5378;53.206;13.316;2023-05-07T01:26:53;14.60;;;7.07;;
10659;SDS011;5378;53.206;13.316;2023-05-07T01:29:41;30.43;;;7.37;;
10659;SDS011;5378;53.206;13.316;2023-05-07T01:32:30;14.97;;;7.67;;
10659;SDS011;5378;53.206;13.316;2023-05-07T01:35:21;13.50;;;6.90;;
10659;SDS011;5378;53.206;13.316;2023-05-07T01:38:11;13.70;;;8.33;;
10659;SDS011;5378;53.206;13.316;2023-05-07T01:41:00;12.60;;;8.10;;
10659;SDS011;5378;53.206;13.316;2023-05-07T01:43:48;11.47;;;6.20;;
10659;SDS011;5378;53.206;13.316;2023-05-07T01:46:37;15.37;;;7.70;;
10659;SDS011;5378;53.206;13.316;2023-05-07T01:49:24;19.03;;;7.87;;
10659;SDS011;5378;53.206;13.316;2023-05-07T01:52:11;14.17;;;7.67;;
10659;SDS011;5378;53.206;13.316;2023-05-07T01:54:59;12.93;;;6.90;;
10659;SDS011;5378;53.206;13.316;2023-05-07T01:57:47;16.20;;;8.47;;
10659;SDS011;5378;53.206;13.316;2023-05-07T02:00:34;15.07;;;7.70;;
10659;SDS011;5378;53.206;13.316;2023-05-07T02:03:23;13.70;;;7.80;;
10659;SDS011;5378;53.206;13.316;2023-05-07T02:06:18;12.13;;;7.90;;
10659;SDS011;5378;53.206;13.316;2023-05-07T02:09:05;15.40;;;8.40;;
10659;SDS011;5378;53.206;13.316;2023-05-07T02:11:55;14.70;;;8.47;;
10659;SDS011;5378;53.206;13.316;2023-05-07T02:14:44;18.50;;;8.97;;
10659;SDS011;5378;53.206;13.316;2023-05-07T02:17:32;13.57;;;8.90;;
10659;SDS011;5378;53.206;13.316;2023-05-07T02:20:19;17.73;;;8.40;;
10659;SDS011;5378;53.206;13.316;2023-05-07T02:23:06;12.07;;;7.50;;
10659;SDS011;5378;53.206;13.316;2023-05-07T02:25:53;25.53;;;9.20;;
10659;SDS011;5378;53.206;13.316;2023-05-07T02:28:40;13.80;;;8.00;;
10659;SDS011;5378;53.206;13.316;2023-05-07T02:31:29;15.30;;;9.27;;
10659;SDS011;5378;53.206;13.316;2023-05-07T02:34:17;14.73;;;7.60;;
10659;SDS011;5378;53.206;13.316;2023-05-07T02:37:04;14.27;;;8.37;;
10659;SDS011;5378;53.206;13.316;2023-05-07T02:39:51;17.80;;;7.80;;
10659;SDS011;5378;53.206;13.316;2023-05-07T02:42:37;13.90;;;7.90;;
10659;SDS011;5378;53.206;13.316;2023-05-07T02:45:25;16.73;;;7.23;;
10659;SDS011;5378;53.206;13.316;2023-05-07T02:48:14;12.57;;;7.33;;
10659;SDS011;5378;53.206;13.316;2023-05-07T02:51:01;10.77;;;7.17;;
10659;SDS011;5378;53.206;13.316;2023-05-07T02:53:50;15.27;;;8.67;;
10659;SDS011;5378;53.206;13.316;2023-05-07T02:56:37;15.77;;;8.13;;
10659;SDS011;5378;53.206;13.316;2023-05-07T02:59:23;13.17;;;8.83;;
10659;SDS011;5378;53.206;13.316;2023-05-07T03:02:12;15.07;;;9.50;;
10659;SDS011;5378;53.206;13.316;2023-05-07T03:05:00;14.60;;;8.30;;
10659;SDS011;5378;53.206;13.316;2023-05-07T03:07:47;15.33;;;7.43;;
10659;SDS011;5378;53.206;13.316;2023-05-07T03:10:34;17.63;;;9.00;;
10659;SDS011;5378;53.206;13.316;2023-05-07T03:13:22;19.23;;;7.60;;
10659;SDS011;5378;53.206;13.316;2023-05-07T03:16:09;14.00;;;7.97;;
10659;SDS011;5378;53.206;13.316;2023-05-07T03:18:56;12.57;;;7.43;;
10659;SDS011;5378;53.206;13.316;2023-05-07T03:21:45;15.47;;;7.30;;
10659;SDS011;5378;53.206;13.316;2023-05-07T03:24:33;17.10;;;8.60;;
10659;SDS011;5378;53.206;13.316;2023-05-07T03:27:20;16.30;;;9.27;;
10659;SDS011;5378;53.206;13.316;2023-05-07T03:30:11;14.37;;;7.70;;
10659;SDS011;5378;53.206;13.316;2023-05-07T03:32:58;16.67;;;9.23;;
10659;SDS011;5378;53.206;13.316;2023-05-07T03:35:46;15.57;;;8.87;;
10659;SDS011;5378;53.206;13.316;2023-05-07T03:38:39;17.30;;;7.90;;
10659;SDS011;5378;53.206;13.316;2023-05-07T03:41:27;16.57;;;8.03;;
10659;SDS011;5378;53.206;13.316;2023-05-07T03:44:15;17.27;;;8.10;;
10659;SDS011;5378;53.206;13.316;2023-05-07T03:47:04;25.27;;;8.53;;
10659;SDS011;5378;53.206;13.316;2023-05-07T03:49:51;16.60;;;7.80;;
10659;SDS011;5378;53.206;13.316;2023-05-07T03:52:41;17.63;;;8.70;;
10659;SDS011;5378;53.206;13.316;2023-05-07T03:55:31;20.37;;;10.23;;
10659;SDS011;5378;53.206;13.316;2023-05-07T03:58:18;12.53;;;7.33;;
10659;SDS011;5378;53.206;13.316;2023-05-07T04:01:05;21.13;;;6.20;;
10659;SDS011;5378;53.206;13.316;2023-05-07T04:03:53;9.17;;;5.40;;
10659;SDS011;5378;53.206;13.316;2023-05-07T04:06:41;9.60;;;6.27;;
10659;SDS011;5378;53.206;13.316;2023-05-07T04:09:28;8.83;;;5.47;;
10659;SDS011;5378;53.206;13.316;2023-05-07T04:12:17;8.23;;;4.90;;
10659;SDS011;5378;53.206;13.316;2023-05-07T04:15:04;8.07;;;5.00;;
10659;SDS011;5378;53.206;13.316;2023-05-07T04:17:52;10.30;;;5.57;;
10659;SDS011;5378;53.206;13.316;2023-05-07T04:20:41;13.77;;;5.53;;
10659;SDS011;5378;53.206;13.316;2023-05-07T04:23:30;10.00;;;5.97;;
10659;SDS011;5378;53.206;13.316;2023-05-07T04:26:21;8.30;;;5.43;;
10659;SDS011;5378;53.206;13.316;2023-05-07T04:29:10;13.10;;;5.10;;
10659;SDS011;5378;53.206;13.316;2023-05-07T04:31:57;11.47;;;5.67;;
10659;SDS011;5378;53.206;13.316;2023-05-07T04:34:45;9.20;;;5.77;;
10659;SDS011;5378;53.206;13.316;2023-05-07T04:37:33;11.40;;;6.93;;
10659;SDS011;5378;53.206;13.316;2023-05-07T04:40:21;9.87;;;5.57;;
10659;SDS011;5378;53.206;13.316;2023-05-07T04:43:08;11.20;;;5.50;;
10659;SDS011;5378;53.206;13.316;2023-05-07T04:46:04;10.07;;;5.03;;
10659;SDS011;5378;53.206;13.316;2023-05-07T04:48:51;8.40;;;4.37;;
10659;SDS011;5378;53.206;13.316;2023-05-07T04:51:39;5.93;;;4.43;;
10659;SDS011;5378;53.206;13.316;2023-05-07T04:54:29;6.40;;;4.30;;
10659;SDS011;5378;53.206;13.316;2023-05-07T04:57:17;8.17;;;4.60;;
10659;SDS011;5378;53.206;13.316;2023-05-07T05:00:06;6.70;;;4.20;;
10659;SDS011;5378;53.206;13.316;2023-05-07T05:02:58;7.50;;;4.10;;
10659;SDS011;5378;53.206;13.316;2023-05-07T05:05:45;6.60;;;4.13;;
10659;SDS011;5378;53.206;13.316;2023-05-07T05:08:32;9.13;;;4.30;;
10659;SDS011;5378;53.206;13.316;2023-05-07T05:11:21;9.60;;;4.70;;
10659;SDS011;5378;53.206;13.316;2023-05-07T05:14:09;9.53;;;4.70;;
10659;SDS011;5378;53.206;13.316;2023-05-07T05:16:56;7.63;;;4.53;;
10659;SDS011;5378;53.206;13.316;2023-05-07T05:19:45;8.23;;;5.40;;
10659;SDS011;5378;53.206;13.316;2023-05-07T05:22:32;6.00;;;4.30;;
10659;SDS011;5378;53.206;13.316;2023-05-07T05:25:20;6.27;;;3.77;;
10659;SDS011;5378;53.206;13.316;2023-05-07T05:28:07;7.13;;;4.03;;
10659;SDS011;5378;53.206;13.316;2023-05-07T05:30:54;8.33;;;3.93;;
10659;SDS011;5378;53.206;13.316;2023-05-07T05:33:43;5.97;;;3.87;;
10659;SDS011;5378;53.206;13.316;2023-05-07T05:36:32;6.03;;;4.20;;
10659;SDS011;5378;53.206;13.316;2023-05-07T05:39:20;4.90;;;3.53;;
10659;SDS011;5378;53.206;13.316;2023-05-07T05:42:09;7.20;;;3.87;;
10659;SDS011;5378;53.206;13.316;2023-05-07T05:44:55;6.70;;;4.20;;
10659;SDS011;5378;53.206;13.316;2023-05-07T05:47:43;7.77;;;3.70;;
10659;SDS011;5378;53.206;13.316;2023-05-07T05:50:31;7.43;;;3.50;;
10659;SDS011;5378;53.206;13.316;2023-05-07T05:53:19;4.97;;;3.53;;
10659;SDS011;5378;53.206;13.316;2023-05-07T05:56:06;6.47;;;4.37;;
10659;SDS011;5378;53.206;13.316;2023-05-07T05:58:56;4.83;;;3.70;;
10659;SDS011;5378;53.206;13.316;2023-05-07T06:01:44;8.20;;;4.07;;
10659;SDS011;5378;53.206;13.316;2023-05-07T06:04:31;7.70;;;4.17;;
10659;SDS011;5378;53.206;13.316;2023-05-07T06:07:18;6.40;;;3.53;;
10659;SDS011;5378;53.206;13.316;2023-05-07T06:10:08;6.17;;;4.10;;
10659;SDS011;5378;53.206;13.316;2023-05-07T06:12:56;8.23;;;3.50;;
10659;SDS011;5378;53.206;13.316;2023-05-07T06:15:43;5.40;;;3.60;;
10659;SDS011;5378;53.206;13.316;2023-05-07T06:18:31;5.23;;;3.37;;
10659;SDS011;5378;53.206;13.316;2023-05-07T06:21:21;4.87;;;2.90;;
10659;SDS011;5378;53.206;13.316;2023-05-07T06:24:08;6.60;;;3.37;;
10659;SDS011;5378;53.206;13.316;2023-05-07T06:26:58;6.73;;;3.97;;
10659;SDS011;5378;53.206;13.316;2023-05-07T06:29:47;5.27;;;2.93;;
10659;SDS011;5378;53.206;13.316;2023-05-07T06:32:36;5.27;;;3.00;;
10659;SDS011;5378;53.206;13.316;2023-05-07T06:35:23;5.37;;;3.60;;
10659;SDS011;5378;53.206;13.316;2023-05-07T06:38:12;4.87;;;3.00;;
10659;SDS011;5378;53.206;13.316;2023-05-07T06:41:00;2.77;;;2.53;;
10659;SDS011;5378;53.206;13.316;2023-05-07T06:43:48;10.90;;;3.43;;
10659;SDS011;5378;53.206;13.316;2023-05-07T06:46:47;5.20;;;3.20;;
10659;SDS011;5378;53.206;13.316;2023-05-07T06:49:35;4.80;;;2.87;;
10659;SDS011;5378;53.206;13.316;2023-05-07T06:52:21;5.30;;;2.90;;
10659;SDS011;5378;53.206;13.316;2023-05-07T06:55:09;4.60;;;2.80;;
10659;SDS011;5378;53.206;13.316;2023-05-07T06:57:57;4.60;;;2.80;;
10659;SDS011;5378;53.206;13.316;2023-05-07T07:00:47;4.73;;;2.80;;
10659;SDS011;5378;53.206;13.316;2023-05-07T07:03:34;3.63;;;2.20;;
10659;SDS011;5378;53.206;13.316;2023-05-07T07:06:21;5.40;;;2.63;;
10659;SDS011;5378;53.206;13.316;2023-05-07T07:09:08;5.70;;;2.70;;
10659;SDS011;5378;53.206;13.316;2023-05-07T07:11:55;4.60;;;2.47;;
10659;SDS011;5378;53.206;13.316;2023-05-07T07:14:42;2.97;;;2.10;;
10659;SDS011;5378;53.206;13.316;2023-05-07T07:17:32;4.17;;;2.47;;
10659;SDS011;5378;53.206;13.316;2023-05-07T07:20:19;3.97;;;2.50;;
10659;SDS011;5378;53.206;13.316;2023-05-07T07:23:06;2.70;;;2.03;;
10659;SDS011;5378;53.206;13.316;2023-05-07T07:25:53;4.10;;;2.23;;
10659;SDS011;5378;53.206;13.316;2023-05-07T07:28:44;6.00;;;2.57;;
10659;SDS011;5378;53.206;13.316;2023-05-07T07:31:35;4.73;;;2.90;;
10659;SDS011;5378;53.206;13.316;2023-05-07T07:34:23;3.50;;;2.17;;
10659;SDS011;5378;53.206;13.316;2023-05-07T07:37:11;8.53;;;2.03;;
10659;SDS011;5378;53.206;13.316;2023-05-07T07:39:58;3.43;;;2.23;;
10659;SDS011;5378;53.206;13.316;2023-05-07T07:42:44;4.10;;;2.27;;
10659;SDS011;5378;53.206;13.316;2023-05-07T07:45:31;3.80;;;2.50;;
10659;SDS011;5378;53.206;13.316;2023-05-07T07:48:19;7.23;;;2.27;;
10659;SDS011;5378;53.206;13.316;2023-05-07T07:51:08;5.40;;;1.80;;
10659;SDS011;5378;53.206;13.316;2023-05-07T07:53:55;3.03;;;2.33;;
10659;SDS011;5378;53.206;13.316;2023-05-07T07:56:43;4.00;;;2.87;;
10659;SDS011;5378;53.206;13.316;2023-05-07T07:59:31;3.93;;;2.30;;
10659;SDS011;5378;53.206;13.316;2023-05-07T08:02:19;5.40;;;2.80;;
10659;SDS011;5378;53.206;13.316;2023-05-07T08:05:07;3.83;;;2.23;;
10659;SDS011;5378;53.206;13.316;2023-05-07T08:07:56;6.80;;;2.73;;
10659;SDS011;5378;53.206;13.316;2023-05-07T08:10:48;2.90;;;2.37;;
10659;SDS011;5378;53.206;13.316;2023-05-07T08:13:43;5.13;;;2.97;;
10659;SDS011;5378;53.206;13.316;2023-05-07T08:16:31;3.30;;;2.20;;
10659;SDS011;5378;53.206;13.316;2023-05-07T08:19:19;4.83;;;2.80;;
10659;SDS011;5378;53.206;13.316;2023-05-07T08:22:07;6.23;;;2.93;;
10659;SDS011;5378;53.206;13.316;2023-05-07T08:24:56;3.27;;;2.40;;
10659;SDS011;5378;53.206;13.316;2023-05-07T08:27:43;8.13;;;3.10;;
10659;SDS011;5378;53.206;13.316;2023-05-07T08:30:31;3.17;;;2.30;;
10659;SDS011;5378;53.206;13.316;2023-05-07T08:33:19;3.47;;;2.13;;
10659;SDS011;5378;53.206;13.316;2023-05-07T08:36:06;3.47;;;2.40;;
10659;SDS011;5378;53.206;13.316;2023-05-07T08:38:54;6.50;;;2.40;;
10659;SDS011;5378;53.206;13.316;2023-05-07T08:41:43;3.43;;;2.60;;
10659;SDS011;5378;53.206;13.316;2023-05-07T08:44:32;5.33;;;2.70;;
10659;SDS011;5378;53.206;13.316;2023-05-07T08:47:21;5.63;;;2.57;;
10659;SDS011;5378;53.206;13.316;2023-05-07T08:50:18;3.97;;;2.97;;
10659;SDS011;5378;53.206;13.316;2023-05-07T08:53:07;3.90;;;3.10;;
10659;SDS011;5378;53.206;13.316;2023-05-07T08:55:54;4.90;;;3.47;;
10659;SDS011;5378;53.206;13.316;2023-05-07T08:58:43;4.03;;;2.90;;
10659;SDS011;5378;53.206;13.316;2023-05-07T09:01:31;5.33;;;2.63;;
10659;SDS011;5378;53.206;13.316;2023-05-07T09:04:18;3.63;;;2.47;;
10659;SDS011;5378;53.206;13.316;2023-05-07T09:07:05;4.20;;;2.60;;
10659;SDS011;5378;53.206;13.316;2023-05-07T09:09:57;6.47;;;2.57;;
10659;SDS011;5378;53.206;13.316;2023-05-07T09:12:46;3.73;;;2.27;;
10659;SDS011;5378;53.206;13.316;2023-05-07T09:15:36;5.83;;;2.10;;
10659;SDS011;5378;53.206;13.316;2023-05-07T09:18:23;5.20;;;1.70;;
10659;SDS011;5378;53.206;13.316;2023-05-07T09:21:14;5.80;;;2.63;;
10659;SDS011;5378;53.206;13.316;2023-05-07T09:24:03;3.33;;;2.37;;
10659;SDS011;5378;53.206;13.316;2023-05-07T09:26:57;2.97;;;2.00;;
10659;SDS011;5378;53.206;13.316;2023-05-07T09:29:44;7.03;;;2.73;;
10659;SDS011;5378;53.206;13.316;2023-05-07T09:32:36;3.20;;;2.27;;
10659;SDS011;5378;53.206;13.316;2023-05-07T09:35:29;2.83;;;2.10;;
10659;SDS011;5378;53.206;13.316;2023-05-07T09:38:22;3.73;;;2.30;;
10659;SDS011;5378;53.206;13.316;2023-05-07T09:41:14;3.30;;;2.23;;
10659;SDS011;5378;53.206;13.316;2023-05-07T09:44:10;4.23;;;2.27;;
10659;SDS011;5378;53.206;13.316;2023-05-07T09:47:04;3.10;;;1.73;;
10659;SDS011;5378;53.206;13.316;2023-05-07T09:49:58;2.53;;;2.03;;
10659;SDS011;5378;53.206;13.316;2023-05-07T09:52:50;7.13;;;2.73;;
10659;SDS011;5378;53.206;13.316;2023-05-07T09:55:37;10.20;;;2.40;;
10659;SDS011;5378;53.206;13.316;2023-05-07T09:58:25;3.20;;;1.67;;
10659;SDS011;5378;53.206;13.316;2023-05-07T10:01:13;2.60;;;1.83;;
10659;SDS011;5378;53.206;13.316;2023-05-07T10:04:01;2.00;;;1.60;;
10659;SDS011;5378;53.206;13.316;2023-05-07T10:06:52;3.77;;;1.90;;
10659;SDS011;5378;53.206;13.316;2023-05-07T10:09:40;4.00;;;1.50;;
10659;SDS011;5378;53.206;13.316;2023-05-07T10:12:38;4.03;;;2.17;;
10659;SDS011;5378;53.206;13.316;2023-05-07T10:15:31;3.53;;;1.60;;
10659;SDS011;5378;53.206;13.316;2023-05-07T10:18:21;2.43;;;1.73;;
10659;SDS011;5378;53.206;13.316;2023-05-07T10:21:19;2.87;;;1.33;;
10659;SDS011;5378;53.206;13.316;2023-05-07T10:24:13;4.00;;;2.33;;
10659;SDS011;5378;53.206;13.316;2023-05-07T10:27:07;10.03;;;2.30;;
10659;SDS011;5378;53.206;13.316;2023-05-07T10:30:00;2.30;;;1.87;;
10659;SDS011;5378;53.206;13.316;2023-05-07T10:32:59;3.60;;;2.03;;
10659;SDS011;5378;53.206;13.316;2023-05-07T10:35:52;10.77;;;2.40;;
10659;SDS011;5378;53.206;13.316;2023-05-07T10:38:44;2.23;;;1.50;;
10659;SDS011;5378;53.206;13.316;2023-05-07T10:41:34;2.10;;;1.53;;
10659;SDS011;5378;53.206;13.316;2023-05-07T10:44:26;4.40;;;1.63;;
10659;SDS011;5378;53.206;13.316;2023-05-07T10:47:18;1.90;;;1.47;;
10659;SDS011;5378;53.206;13.316;2023-05-07T10:50:21;2.87;;;1.63;;
10659;SDS011;5378;53.206;13.316;2023-05-07T10:53:23;4.33;;;1.50;;
10659;SDS011;5378;53.206;13.316;2023-05-07T10:56:24;2.40;;;1.53;;
10659;SDS011;5378;53.206;13.316;2023-05-07T10:59:38;3.93;;;2.27;;
10659;SDS011;5378;53.206;13.316;2023-05-07T11:06:13;2.30;;;1.70;;
10659;SDS011;5378;53.206;13.316;2023-05-07T11:09:07;1.80;;;1.30;;
10659;SDS011;5378;53.206;13.316;2023-05-07T11:12:02;1.80;;;1.43;;
10659;SDS011;5378;53.206;13.316;2023-05-07T11:14:59;4.43;;;1.47;;
10659;SDS011;5378;53.206;13.316;2023-05-07T11:17:52;2.37;;;1.47;;
10659;SDS011;5378;53.206;13.316;2023-05-07T11:20:45;1.93;;;1.70;;
10659;SDS011;5378;53.206;13.316;2023-05-07T11:23:54;2.70;;;1.70;;
10659;SDS011;5378;53.206;13.316;2023-05-07T11:26:56;1.50;;;1.40;;
10659;SDS011;5378;53.206;13.316;2023-05-07T11:29:46;1.53;;;1.40;;
10659;SDS011;5378;53.206;13.316;2023-05-07T11:32:35;2.47;;;1.60;;
10659;SDS011;5378;53.206;13.316;2023-05-07T11:35:22;1.67;;;1.10;;
10659;SDS011;5378;53.206;13.316;2023-05-07T11:38:10;2.17;;;1.40;;
10659;SDS011;5378;53.206;13.316;2023-05-07T11:40:59;1.67;;;1.33;;
10659;SDS011;5378;53.206;13.316;2023-05-07T11:43:54;2.53;;;1.63;;
10659;SDS011;5378;53.206;13.316;2023-05-07T11:46:43;2.23;;;1.23;;
10659;SDS011;5378;53.206;13.316;2023-05-07T11:49:32;3.23;;;1.77;;
10659;SDS011;5378;53.206;13.316;2023-05-07T11:52:21;1.73;;;1.13;;
10659;SDS011;5378;53.206;13.316;2023-05-07T11:55:09;1.70;;;1.20;;
10659;SDS011;5378;53.206;13.316;2023-05-07T11:57:56;3.03;;;1.50;;
10659;SDS011;5378;53.206;13.316;2023-05-07T12:00:47;2.40;;;1.40;;
10659;SDS011;5378;53.206;13.316;2023-05-07T12:03:35;4.30;;;1.30;;
10659;SDS011;5378;53.206;13.316;2023-05-07T12:06:24;1.97;;;1.37;;
10659;SDS011;5378;53.206;13.316;2023-05-07T12:09:12;4.77;;;1.40;;
10659;SDS011;5378;53.206;13.316;2023-05-07T12:12:02;5.47;;;1.97;;
10659;SDS011;5378;53.206;13.316;2023-05-07T12:14:50;3.53;;;1.67;;
10659;SDS011;5378;53.206;13.316;2023-05-07T12:17:38;2.40;;;1.43;;
10659;SDS011;5378;53.206;13.316;2023-05-07T12:20:26;3.70;;;1.70;;
10659;SDS011;5378;53.206;13.316;2023-05-07T12:23:14;2.27;;;1.40;;
10659;SDS011;5378;53.206;13.316;2023-05-07T12:26:02;3.57;;;1.80;;
10659;SDS011;5378;53.206;13.316;2023-05-07T12:28:51;5.67;;;1.87;;
10659;SDS011;5378;53.206;13.316;2023-05-07T12:31:40;1.93;;;1.43;;
10659;SDS011;5378;53.206;13.316;2023-05-07T12:34:27;6.00;;;1.70;;
10659;SDS011;5378;53.206;13.316;2023-05-07T12:37:14;4.40;;;0.90;;
10659;SDS011;5378;53.206;13.316;2023-05-07T12:40:07;1.90;;;1.47;;
10659;SDS011;5378;53.206;13.316;2023-05-07T12:42:55;2.23;;;1.30;;
10659;SDS011;5378;53.206;13.316;2023-05-07T12:45:44;3.60;;;1.20;;
10659;SDS011;5378;53.206;13.316;2023-05-07T12:48:31;1.50;;;1.10;;
10659;SDS011;5378;53.206;13.316;2023-05-07T12:51:18;2.30;;;1.30;;
10659;SDS011;5378;53.206;13.316;2023-05-07T12:54:05;2.40;;;1.57;;
10659;SDS011;5378;53.206;13.316;2023-05-07T12:57:00;2.23;;;1.40;;
10659;SDS011;5378;53.206;13.316;2023-05-07T12:59:48;1.20;;;1.07;;
10659;SDS011;5378;53.206;13.316;2023-05-07T13:02:37;1.80;;;1.33;;
10659;SDS011;5378;53.206;13.316;2023-05-07T13:05:24;2.97;;;1.50;;
10659;SDS011;5378;53.206;13.316;2023-05-07T13:08:12;1.97;;;1.50;;
10659;SDS011;5378;53.206;13.316;2023-05-07T13:11:10;4.87;;;1.60;;
10659;SDS011;5378;53.206;13.316;2023-05-07T13:13:59;1.80;;;1.37;;
10659;SDS011;5378;53.206;13.316;2023-05-07T13:16:46;3.77;;;1.50;;
10659;SDS011;5378;53.206;13.316;2023-05-07T13:19:33;2.53;;;1.40;;
10659;SDS011;5378;53.206;13.316;2023-05-07T13:22:20;2.77;;;1.60;;
10659;SDS011;5378;53.206;13.316;2023-05-07T13:25:07;5.83;;;1.30;;
10659;SDS011;5378;53.206;13.316;2023-05-07T13:27:56;2.30;;;1.47;;
10659;SDS011;5378;53.206;13.316;2023-05-07T13:30:48;2.53;;;1.77;;
10659;SDS011;5378;53.206;13.316;2023-05-07T13:33:37;1.77;;;1.40;;
10659;SDS011;5378;53.206;13.316;2023-05-07T13:36:24;4.53;;;1.93;;
10659;SDS011;5378;53.206;13.316;2023-05-07T13:39:12;1.63;;;1.33;;
10659;SDS011;5378;53.206;13.316;2023-05-07T13:41:59;6.20;;;1.60;;
10659;SDS011;5378;53.206;13.316;2023-05-07T13:44:46;2.20;;;1.80;;
10659;SDS011;5378;53.206;13.316;2023-05-07T13:47:34;1.77;;;1.40;;
10659;SDS011;5378;53.206;13.316;2023-05-07T13:50:24;2.60;;;1.67;;
10659;SDS011;5378;53.206;13.316;2023-05-07T13:53:12;4.20;;;1.53;;
10659;SDS011;5378;53.206;13.316;2023-05-07T13:56:01;2.03;;;1.50;;
10659;SDS011;5378;53.206;13.316;2023-05-07T13:58:49;2.97;;;1.70;;
10659;SDS011;5378;53.206;13.316;2023-05-07T14:01:43;4.80;;;1.70;;
10659;SDS011;5378;53.206;13.316;2023-05-07T14:04:32;3.53;;;2.00;;
10659;SDS011;5378;53.206;13.316;2023-05-07T14:07:19;1.67;;;1.30;;
10659;SDS011;5378;53.206;13.316;2023-05-07T14:10:06;3.73;;;1.60;;
10659;SDS011;5378;53.206;13.316;2023-05-07T14:12:56;2.23;;;1.70;;
10659;SDS011;5378;53.206;13.316;2023-05-07T14:15:43;2.83;;;2.23;;
10659;SDS011;5378;53.206;13.316;2023-05-07T14:18:32;8.70;;;1.97;;
10659;SDS011;5378;53.206;13.316;2023-05-07T14:21:21;5.30;;;1.83;;
10659;SDS011;5378;53.206;13.316;2023-05-07T14:24:08;1.97;;;1.20;;
10659;SDS011;5378;53.206;13.316;2023-05-07T14:26:55;2.70;;;1.70;;
10659;SDS011;5378;53.206;13.316;2023-05-07T14:29:41;3.00;;;2.10;;
10659;SDS011;5378;53.206;13.316;2023-05-07T14:32:30;3.10;;;1.77;;
10659;SDS011;5378;53.206;13.316;2023-05-07T14:35:18;2.50;;;1.50;;
10659;SDS011;5378;53.206;13.316;2023-05-07T14:38:06;2.37;;;1.50;;
10659;SDS011;5378;53.206;13.316;2023-05-07T14:40:53;3.10;;;2.13;;
10659;SDS011;5378;53.206;13.316;2023-05-07T14:43:41;3.17;;;1.93;;
10659;SDS011;5378;53.206;13.316;2023-05-07T14:46:29;1.93;;;1.73;;
10659;SDS011;5378;53.206;13.316;2023-05-07T14:49:16;2.07;;;1.67;;
10659;SDS011;5378;53.206;13.316;2023-05-07T14:52:03;3.80;;;2.33;;
10659;SDS011;5378;53.206;13.316;2023-05-07T14:54:53;14.63;;;2.10;;
10659;SDS011;5378;53.206;13.316;2023-05-07T14:57:40;2.03;;;1.70;;
10659;SDS011;5378;53.206;13.316;2023-05-07T15:00:27;2.93;;;2.03;;
10659;SDS011;5378;53.206;13.316;2023-05-07T15:03:14;4.30;;;2.23;;
10659;SDS011;5378;53.206;13.316;2023-05-07T15:06:03;4.67;;;2.00;;
10659;SDS011;5378;53.206;13.316;2023-05-07T15:08:50;5.70;;;2.20;;
10659;SDS011;5378;53.206;13.316;2023-05-07T15:11:38;2.93;;;1.70;;
10659;SDS011;5378;53.206;13.316;2023-05-07T15:14:25;2.27;;;1.60;;
10659;SDS011;5378;53.206;13.316;2023-05-07T15:17:12;2.40;;;1.60;;
10659;SDS011;5378;53.206;13.316;2023-05-07T15:20:00;5.73;;;2.30;;
10659;SDS011;5378;53.206;13.316;2023-05-07T15:22:49;2.53;;;1.63;;
10659;SDS011;5378;53.206;13.316;2023-05-07T15:25:37;3.80;;;2.00;;
10659;SDS011;5378;53.206;13.316;2023-05-07T15:28:25;6.40;;;2.07;;
10659;SDS011;5378;53.206;13.316;2023-05-07T15:31:16;2.93;;;1.73;;
10659;SDS011;5378;53.206;13.316;2023-05-07T15:34:03;5.67;;;2.57;;
10659;SDS011;5378;53.206;13.316;2023-05-07T15:36:50;6.70;;;2.20;;
10659;SDS011;5378;53.206;13.316;2023-05-07T15:39:37;6.13;;;2.57;;
10659;SDS011;5378;53.206;13.316;2023-05-07T15:42:24;3.30;;;1.83;;
10659;SDS011;5378;53.206;13.316;2023-05-07T15:45:13;3.03;;;2.17;;
10659;SDS011;5378;53.206;13.316;2023-05-07T15:48:00;8.40;;;2.33;;
10659;SDS011;5378;53.206;13.316;2023-05-07T15:50:48;3.40;;;2.00;;
10659;SDS011;5378;53.206;13.316;2023-05-07T15:53:35;3.07;;;2.07;;
10659;SDS011;5378;53.206;13.316;2023-05-07T15:56:23;3.57;;;1.70;;
10659;SDS011;5378;53.206;13.316;2023-05-07T15:59:10;2.90;;;1.93;;
10659;SDS011;5378;53.206;13.316;2023-05-07T16:02:01;2.43;;;1.83;;
10659;SDS011;5378;53.206;13.316;2023-05-07T16:04:49;1.67;;;1.40;;
10659;SDS011;5378;53.206;13.316;2023-05-07T16:07:36;2.23;;;2.03;;
10659;SDS011;5378;53.206;13.316;2023-05-07T16:10:23;2.27;;;1.70;;
10659;SDS011;5378;53.206;13.316;2023-05-07T16:13:11;1.97;;;1.57;;
10659;SDS011;5378;53.206;13.316;2023-05-07T16:15:58;1.97;;;1.53;;
10659;SDS011;5378;53.206;13.316;2023-05-07T16:18:46;4.00;;;2.00;;
10659;SDS011;5378;53.206;13.316;2023-05-07T16:21:33;1.50;;;1.40;;
10659;SDS011;5378;53.206;13.316;2023-05-07T16:24:21;3.13;;;1.23;;
10659;SDS011;5378;53.206;13.316;2023-05-07T16:27:07;3.13;;;1.87;;
10659;SDS011;5378;53.206;13.316;2023-05-07T16:29:55;3.77;;;1.93;;
10659;SDS011;5378;53.206;13.316;2023-05-07T16:32:42;8.67;;;1.37;;
10659;SDS011;5378;53.206;13.316;2023-05-07T16:35:31;3.17;;;1.30;;
10659;SDS011;5378;53.206;13.316;2023-05-07T16:38:18;1.73;;;1.40;;
10659;SDS011;5378;53.206;13.316;2023-05-07T16:41:05;5.03;;;1.73;;
10659;SDS011;5378;53.206;13.316;2023-05-07T16:43:51;2.60;;;1.87;;
10659;SDS011;5378;53.206;13.316;2023-05-07T16:46:39;2.30;;;1.60;;
10659;SDS011;5378;53.206;13.316;2023-05-07T16:49:26;1.63;;;1.17;;
10659;SDS011;5378;53.206;13.316;2023-05-07T16:52:14;3.37;;;1.63;;
10659;SDS011;5378;53.206;13.316;2023-05-07T16:55:01;2.53;;;1.17;;